createdAt,value
2023-06-17T00:00:56.122Z,12.40
2023-06-17T00:01:56.089Z,12.39
2023-06-17T00:02:56.109Z,12.37
2023-06-17T00:03:56.283Z,12.36
2023-06-17T00:04:56.087Z,12.38
2023-06-17T00:05:56.165Z,12.36
2023-06-17T00:06:56.138Z,12.36
2023-06-17T00:07:56.180Z,12.36
2023-06-17T00:08:56.199Z,12.34
2023-06-17T00:09:56.232Z,12.35
2023-06-17T00:10:56.198Z,12.36
2023-06-17T00:11:56.199Z,12.37
2023-06-17T00:12:56.257Z,12.36
2023-06-17T00:13:56.295Z,12.34
2023-06-17T00:14:56.275Z,12.31
2023-06-17T00:15:56.275Z,12.32
2023-06-17T00:16:56.233Z,12.32
2023-06-17T00:17:56.343Z,12.31
2023-06-17T00:18:56.297Z,12.29
2023-06-17T00:19:56.304Z,12.26
2023-06-17T00:20:56.327Z,12.24
2023-06-17T00:21:56.308Z,12.22
2023-06-17T00:22:56.366Z,12.21
2023-06-17T00:23:56.415Z,12.21
2023-06-17T00:24:56.355Z,12.24
2023-06-17T00:25:56.409Z,12.26
2023-06-17T00:26:56.377Z,12.24
2023-06-17T00:27:56.401Z,12.21
2023-06-17T00:28:56.457Z,12.20
2023-06-17T00:29:56.465Z,12.18
2023-06-17T00:30:56.431Z,12.16
2023-06-17T00:31:56.472Z,12.18
2023-06-17T00:32:56.517Z,12.14
2023-06-17T00:33:56.588Z,12.11
2023-06-17T00:34:56.488Z,12.10
2023-06-17T00:35:56.557Z,12.08
2023-06-17T00:36:56.497Z,12.11
2023-06-17T00:37:56.504Z,12.12
2023-06-17T00:38:56.527Z,12.12
2023-06-17T00:39:56.576Z,12.10
2023-06-17T00:40:56.578Z,12.10
2023-06-17T00:41:56.610Z,12.07
2023-06-17T00:42:56.649Z,12.07
2023-06-17T00:43:56.599Z,12.08
2023-06-17T00:44:56.636Z,12.09
2023-06-17T00:45:56.626Z,12.08
2023-06-17T00:46:56.673Z,12.09
2023-06-17T00:47:56.675Z,12.08
2023-06-17T00:48:56.652Z,12.07
2023-06-17T00:49:56.692Z,12.06
2023-06-17T00:50:56.684Z,12.03
2023-06-17T00:52:13.350Z,11.99
2023-06-17T00:52:56.700Z,11.97
2023-06-17T00:53:56.692Z,11.92
2023-06-17T00:54:56.709Z,11.91
2023-06-17T00:55:56.707Z,11.89
2023-06-17T00:56:56.757Z,11.90
2023-06-17T00:59:56.686Z,11.83
2023-06-17T01:00:56.687Z,11.81
2023-06-17T01:01:56.673Z,11.80
2023-06-17T01:02:56.739Z,11.78
2023-06-17T01:03:56.692Z,11.74
2023-06-17T01:05:56.690Z,11.69
2023-06-17T01:06:56.716Z,11.69
2023-06-17T01:07:56.679Z,11.68
2023-06-17T01:08:56.677Z,11.67
2023-06-17T01:10:58.908Z,11.66
2023-06-17T01:11:56.712Z,11.62
2023-06-17T01:12:56.685Z,11.61
2023-06-17T01:13:56.690Z,11.59
2023-06-17T01:15:56.712Z,11.61
2023-06-17T01:16:56.684Z,11.58
2023-06-17T01:17:56.762Z,11.56
2023-06-17T01:18:56.694Z,11.54
2023-06-17T01:21:56.700Z,11.51
2023-06-17T01:22:56.714Z,11.48
2023-06-17T01:23:56.721Z,11.46
2023-06-17T01:26:56.705Z,11.42
2023-06-17T01:27:58.116Z,11.42
2023-06-17T01:28:56.700Z,11.43
2023-06-17T01:29:56.705Z,11.42
2023-06-17T01:31:56.708Z,11.39
2023-06-17T01:32:56.761Z,11.37
2023-06-17T01:33:56.745Z,11.34
2023-06-17T01:34:56.717Z,11.32
2023-06-17T01:36:56.714Z,11.32
2023-06-17T01:37:56.716Z,11.34
2023-06-17T01:38:56.777Z,11.33
2023-06-17T01:39:56.706Z,11.31
2023-06-17T01:41:56.718Z,11.31
2023-06-17T01:42:56.741Z,11.29
2023-06-17T01:43:56.709Z,11.26
2023-06-17T01:44:56.729Z,11.25
2023-06-17T01:47:56.787Z,11.19
2023-06-17T01:48:56.732Z,11.17
2023-06-17T01:49:56.731Z,11.17
2023-06-17T01:50:56.725Z,11.16
2023-06-17T01:52:56.719Z,11.12
2023-06-17T01:53:56.730Z,11.10
2023-06-17T01:54:56.728Z,11.08
2023-06-17T01:55:56.742Z,11.09
2023-06-17T01:58:56.736Z,11.08
2023-06-17T01:59:56.724Z,11.06
2023-06-17T02:00:56.755Z,11.06
2023-06-17T02:02:56.810Z,11.04
2023-06-17T02:03:56.929Z,11.04
2023-06-17T02:04:56.754Z,11.04
2023-06-17T02:05:56.755Z,11.05
2023-06-17T02:07:56.752Z,11.08
2023-06-17T02:08:56.753Z,11.12
2023-06-17T02:09:56.786Z,11.13
2023-06-17T02:10:56.740Z,11.15
2023-06-17T02:13:56.779Z,11.10
2023-06-17T02:14:56.753Z,11.07
2023-06-17T02:15:56.863Z,11.06
2023-06-17T02:17:56.792Z,11.05
2023-06-17T02:18:56.790Z,11.05
2023-06-17T02:21:06.822Z,11.08
2023-06-17T02:21:52.896Z,11.05
2023-06-17T02:22:46.622Z,11.04
2023-06-17T02:23:46.624Z,11.04
2023-06-17T02:24:46.598Z,11.03
2023-06-17T02:25:46.610Z,11.03
2023-06-17T02:26:46.578Z,11.02
2023-06-17T02:27:46.611Z,11.03
2023-06-17T02:28:46.592Z,11.03
2023-06-17T02:29:46.582Z,11.03
2023-06-17T02:30:46.600Z,11.03
2023-06-17T02:31:46.689Z,11.02
2023-06-17T02:32:46.713Z,11.02
2023-06-17T02:33:46.625Z,11.00
2023-06-17T02:34:46.604Z,10.99
2023-06-17T02:35:46.592Z,11.00
2023-06-17T02:36:46.612Z,11.02
2023-06-17T02:37:46.599Z,11.01
2023-06-17T02:38:46.646Z,11.00
2023-06-17T02:39:46.624Z,11.01
2023-06-17T02:40:46.602Z,11.01
2023-06-17T02:41:46.610Z,10.98
2023-06-17T02:42:46.626Z,10.94
2023-06-17T02:43:46.635Z,10.90
2023-06-17T02:44:46.632Z,10.87
2023-06-17T02:45:46.600Z,10.85
2023-06-17T02:46:46.764Z,10.84
2023-06-17T02:47:46.628Z,10.82
2023-06-17T02:48:46.627Z,10.79
2023-06-17T02:49:46.608Z,10.76
2023-06-17T02:50:46.628Z,10.73
2023-06-17T02:51:46.618Z,10.70
2023-06-17T02:52:46.629Z,10.69
2023-06-17T02:53:46.642Z,10.69
2023-06-17T02:54:46.603Z,10.68
2023-06-17T02:55:46.695Z,10.66
2023-06-17T02:56:46.766Z,10.62
2023-06-17T02:57:46.759Z,10.59
2023-06-17T02:58:46.831Z,10.59
2023-06-17T02:59:46.794Z,10.59
2023-06-17T03:00:46.834Z,10.60
2023-06-17T03:01:46.857Z,10.61
2023-06-17T03:02:47.053Z,10.58
2023-06-17T03:03:46.857Z,10.55
2023-06-17T03:04:46.851Z,10.57
2023-06-17T03:05:46.856Z,10.57
2023-06-17T03:06:46.850Z,10.55
2023-06-17T03:07:46.964Z,10.54
2023-06-17T03:08:46.948Z,10.52
2023-06-17T03:09:46.918Z,10.50
2023-06-17T03:10:46.910Z,10.49
2023-06-17T03:11:46.958Z,10.49
2023-06-17T03:12:46.953Z,10.48
2023-06-17T03:13:46.959Z,10.48
2023-06-17T03:14:47.010Z,10.47
2023-06-17T03:15:46.978Z,10.46
2023-06-17T03:16:47.021Z,10.44
2023-06-17T03:17:47.174Z,10.44
2023-06-17T03:18:47.009Z,10.44
2023-06-17T03:19:47.069Z,10.42
2023-06-17T03:20:47.051Z,10.41
2023-06-17T03:21:47.054Z,10.40
2023-06-17T03:22:47.104Z,10.40
2023-06-17T03:23:47.260Z,10.39
2023-06-17T03:24:47.104Z,10.38
2023-06-17T03:25:47.121Z,10.39
2023-06-17T03:26:47.142Z,10.40
2023-06-17T03:27:47.153Z,10.41
2023-06-17T03:28:47.199Z,10.45
2023-06-17T03:29:47.221Z,10.47
2023-06-17T03:30:47.246Z,10.49
2023-06-17T03:31:47.179Z,10.50
2023-06-17T03:32:47.208Z,10.53
2023-06-17T03:33:47.272Z,10.55
2023-06-17T03:34:47.233Z,10.55
2023-06-17T03:35:47.235Z,10.56
2023-06-17T03:36:47.253Z,10.60
2023-06-17T03:37:47.281Z,10.60
2023-06-17T03:38:47.309Z,10.61
2023-06-17T03:39:47.338Z,10.64
2023-06-17T03:40:47.292Z,10.62
2023-06-17T03:41:47.323Z,10.59
2023-06-17T03:42:47.308Z,10.55
2023-06-17T03:43:47.325Z,10.52
2023-06-17T03:44:47.373Z,10.50
2023-06-17T03:45:47.413Z,10.49
2023-06-17T03:46:47.394Z,10.47
2023-06-17T03:47:47.453Z,10.44
2023-06-17T03:48:47.393Z,10.40
2023-06-17T03:49:47.545Z,10.36
2023-06-17T03:50:47.472Z,10.36
2023-06-17T03:51:47.463Z,10.36
2023-06-17T03:52:47.442Z,10.33
2023-06-17T03:53:47.460Z,10.30
2023-06-17T03:54:47.483Z,10.31
2023-06-17T03:55:47.582Z,10.32
2023-06-17T03:56:47.509Z,10.33
2023-06-17T03:57:47.517Z,10.33
2023-06-17T03:58:47.555Z,10.35
2023-06-17T03:59:47.505Z,10.37
2023-06-17T04:00:47.639Z,10.35
2023-06-17T04:01:47.579Z,10.34
2023-06-17T04:02:47.660Z,10.32
2023-06-17T04:03:47.699Z,10.33
2023-06-17T04:04:47.600Z,10.32
2023-06-17T04:05:47.594Z,10.34
2023-06-17T04:06:47.633Z,10.36
2023-06-17T04:07:47.624Z,10.36
2023-06-17T04:08:47.831Z,10.34
2023-06-17T04:10:01.690Z,10.33
2023-06-17T04:10:47.698Z,10.31
2023-06-17T04:11:47.675Z,10.31
2023-06-17T04:12:47.659Z,10.33
2023-06-17T04:13:47.650Z,10.36
2023-06-17T04:14:47.659Z,10.39
2023-06-17T04:15:47.707Z,10.43
2023-06-17T04:16:47.662Z,10.46
2023-06-17T04:17:47.721Z,10.51
2023-06-17T04:18:47.631Z,10.54
2023-06-17T04:19:47.685Z,10.56
2023-06-17T04:20:47.653Z,10.59
2023-06-17T04:21:47.663Z,10.62
2023-06-17T04:22:47.721Z,10.65
2023-06-17T04:23:47.838Z,10.69
2023-06-17T04:24:47.794Z,10.72
2023-06-17T04:25:47.664Z,10.76
2023-06-17T04:26:47.676Z,10.80
2023-06-17T04:27:47.664Z,10.83
2023-06-17T04:28:47.673Z,10.82
2023-06-17T04:29:47.677Z,10.84
2023-06-17T04:30:47.811Z,10.82
2023-06-17T04:31:47.706Z,10.84
2023-06-17T04:32:47.742Z,10.85
2023-06-17T04:33:47.675Z,10.88
2023-06-17T04:34:47.661Z,10.91
2023-06-17T04:35:47.674Z,10.94
2023-06-17T04:36:47.700Z,11.01
2023-06-17T04:37:47.699Z,11.05
2023-06-17T04:38:47.665Z,11.07
2023-06-17T04:39:47.674Z,11.09
2023-06-17T04:40:47.696Z,11.09
2023-06-17T04:41:47.714Z,11.11
2023-06-17T04:42:47.731Z,11.12
2023-06-17T04:43:47.706Z,11.14
2023-06-17T04:44:47.705Z,11.16
2023-06-17T04:45:47.712Z,11.17
2023-06-17T04:46:47.729Z,11.21
2023-06-17T04:47:47.762Z,11.25
2023-06-17T04:48:47.691Z,11.29
2023-06-17T04:49:47.691Z,11.36
2023-06-17T04:50:47.728Z,11.44
2023-06-17T04:51:47.710Z,11.49
2023-06-17T04:52:47.727Z,11.55
2023-06-17T04:53:47.715Z,11.60
2023-06-17T04:54:47.699Z,11.65
2023-06-17T04:55:47.712Z,11.69
2023-06-17T04:56:47.701Z,11.74
2023-06-17T04:57:47.799Z,11.78
2023-06-17T04:58:47.697Z,11.82
2023-06-17T04:59:47.716Z,11.87
2023-06-17T05:00:47.796Z,11.91
2023-06-17T05:01:47.735Z,11.96
2023-06-17T05:02:47.754Z,12.01
2023-06-17T05:03:47.824Z,12.06
2023-06-17T05:04:47.713Z,12.11
2023-06-17T05:05:47.721Z,12.16
2023-06-17T05:06:47.715Z,12.21
2023-06-17T05:07:47.756Z,12.28
2023-06-17T05:08:47.764Z,12.33
2023-06-17T05:09:47.700Z,12.39
2023-06-17T05:10:47.717Z,12.43
2023-06-17T05:11:47.682Z,12.48
2023-06-17T05:12:47.753Z,12.52
2023-06-17T05:13:47.773Z,12.57
2023-06-17T05:14:47.738Z,12.61
2023-06-17T05:15:47.718Z,12.66
2023-06-17T05:16:47.757Z,12.69
2023-06-17T05:17:47.806Z,12.75
2023-06-17T05:18:47.748Z,12.79
2023-06-17T05:19:47.795Z,12.82
2023-06-17T05:20:47.725Z,12.86
2023-06-17T05:21:47.789Z,12.92
2023-06-17T05:22:47.785Z,12.96
2023-06-17T05:23:47.781Z,13.01
2023-06-17T05:24:47.881Z,13.06
2023-06-17T05:25:47.778Z,13.13
2023-06-17T05:26:47.802Z,13.19
2023-06-17T05:27:47.797Z,13.24
2023-06-17T05:28:47.810Z,13.29
2023-06-17T05:29:47.823Z,13.34
2023-06-17T05:30:47.860Z,13.39
2023-06-17T05:31:47.842Z,13.44
2023-06-17T05:32:47.947Z,13.50
2023-06-17T05:33:47.858Z,13.53
2023-06-17T05:34:47.846Z,13.57
2023-06-17T05:35:47.934Z,13.62
2023-06-17T05:36:47.903Z,13.66
2023-06-17T05:37:47.929Z,13.70
2023-06-17T05:38:47.918Z,13.73
2023-06-17T05:39:47.961Z,13.77
2023-06-17T05:40:47.986Z,13.80
2023-06-17T05:41:47.987Z,13.83
2023-06-17T05:42:47.970Z,13.88
2023-06-17T05:43:47.976Z,13.91
2023-06-17T05:44:48.032Z,13.96
2023-06-17T05:45:48.098Z,14.01
2023-06-17T05:46:48.026Z,14.05
2023-06-17T05:47:48.080Z,14.09
2023-06-17T05:48:48.090Z,14.13
2023-06-17T05:49:48.126Z,14.18
2023-06-17T05:50:48.081Z,14.22
2023-06-17T05:51:48.063Z,14.28
2023-06-17T05:52:48.163Z,14.32
2023-06-17T05:53:48.100Z,14.38
2023-06-17T05:54:48.108Z,14.43
2023-06-17T05:55:48.150Z,14.49
2023-06-17T05:56:48.143Z,14.54
2023-06-17T05:57:48.138Z,14.58
2023-06-17T05:58:48.209Z,14.63
2023-06-17T05:59:48.188Z,14.70
2023-06-17T06:00:48.252Z,14.74
2023-06-17T06:01:48.262Z,14.79
2023-06-17T06:02:48.214Z,14.83
2023-06-17T06:03:48.262Z,14.88
2023-06-17T06:04:48.329Z,14.92
2023-06-17T06:05:48.286Z,14.95
2023-06-17T06:06:48.257Z,15.01
2023-06-17T06:07:48.340Z,15.07
2023-06-17T06:08:48.299Z,15.12
2023-06-17T06:09:48.326Z,15.18
2023-06-17T06:10:48.412Z,15.22
2023-06-17T06:11:48.413Z,15.27
2023-06-17T06:12:48.348Z,15.33
2023-06-17T06:13:48.375Z,15.38
2023-06-17T06:14:48.384Z,15.44
2023-06-17T06:15:48.493Z,15.49
2023-06-17T06:16:48.448Z,15.54
2023-06-17T06:17:48.512Z,15.59
2023-06-17T06:18:48.418Z,15.65
2023-06-17T06:19:48.440Z,15.69
2023-06-17T06:20:49.386Z,15.75
2023-06-17T06:21:48.449Z,15.82
2023-06-17T06:22:48.448Z,15.86
2023-06-17T06:23:48.508Z,15.92
2023-06-17T06:24:48.474Z,16.00
2023-06-17T06:25:48.476Z,16.06
2023-06-17T06:26:48.511Z,16.11
2023-06-17T06:27:48.431Z,16.17
2023-06-17T06:28:48.457Z,16.24
2023-06-17T06:29:48.427Z,16.29
2023-06-17T06:30:48.474Z,16.35
2023-06-17T06:31:48.480Z,16.42
2023-06-17T06:32:48.501Z,16.49
2023-06-17T06:33:48.476Z,16.57
2023-06-17T06:34:48.440Z,16.65
2023-06-17T06:35:48.483Z,16.74
2023-06-17T06:36:48.520Z,16.83
2023-06-17T06:37:48.486Z,16.91
2023-06-17T06:38:48.580Z,16.99
2023-06-17T06:39:48.521Z,17.10
2023-06-17T06:40:48.498Z,17.18
2023-06-17T06:41:48.495Z,17.28
2023-06-17T06:42:48.481Z,17.35
2023-06-17T06:43:48.491Z,17.43
2023-06-17T06:44:48.479Z,17.49
2023-06-17T06:45:48.567Z,17.56
2023-06-17T06:46:48.479Z,17.61
2023-06-17T06:47:48.501Z,17.67
2023-06-17T06:48:48.484Z,17.72
2023-06-17T06:49:48.482Z,17.79
2023-06-17T06:50:48.471Z,17.85
2023-06-17T06:51:48.538Z,17.94
2023-06-17T06:52:48.522Z,18.00
2023-06-17T06:53:48.461Z,18.06
2023-06-17T06:54:48.516Z,18.13
2023-06-17T06:55:48.491Z,18.19
2023-06-17T06:56:48.527Z,18.26
2023-06-17T06:57:48.494Z,18.26
2023-06-17T06:58:48.504Z,18.29
2023-06-17T06:59:50.770Z,18.33
2023-06-17T07:00:48.525Z,18.40
2023-06-17T07:01:48.527Z,18.46
2023-06-17T07:02:48.551Z,18.51
2023-06-17T07:03:48.504Z,18.57
2023-06-17T07:04:48.562Z,18.64
2023-06-17T07:05:48.584Z,18.69
2023-06-17T07:06:48.523Z,18.72
2023-06-17T07:07:48.533Z,18.75
2023-06-17T07:08:48.513Z,18.82
2023-06-17T07:09:48.521Z,18.90
2023-06-17T07:10:48.490Z,18.98
2023-06-17T07:11:48.530Z,19.07
2023-06-17T07:12:48.523Z,19.14
2023-06-17T07:13:48.525Z,19.21
2023-06-17T07:14:48.520Z,19.27
2023-06-17T07:15:48.537Z,19.34
2023-06-17T07:16:48.558Z,19.40
2023-06-17T07:17:48.636Z,19.49
2023-06-17T07:18:48.537Z,19.57
2023-06-17T07:19:48.516Z,19.63
2023-06-17T07:20:48.500Z,19.69
2023-06-17T07:21:48.525Z,19.75
2023-06-17T07:22:48.563Z,19.83
2023-06-17T07:23:48.584Z,19.94
2023-06-17T07:24:48.519Z,20.08
2023-06-17T07:25:48.523Z,20.13
2023-06-17T07:26:48.581Z,20.17
2023-06-17T07:27:48.549Z,20.27
2023-06-17T07:28:48.553Z,20.32
2023-06-17T07:29:48.578Z,20.41
2023-06-17T07:30:48.650Z,20.59
2023-06-17T07:31:48.545Z,20.66
2023-06-17T07:32:48.603Z,20.83
2023-06-17T07:33:48.773Z,21.10
2023-06-17T07:34:48.567Z,21.37
2023-06-17T07:35:48.600Z,21.65
2023-06-17T07:36:48.529Z,22.00
2023-06-17T07:37:48.575Z,22.27
2023-06-17T07:38:48.562Z,22.65
2023-06-17T07:39:48.556Z,23.12
2023-06-17T07:40:48.534Z,23.44
2023-06-17T07:41:48.590Z,23.85
2023-06-17T07:42:48.623Z,24.05
2023-06-17T07:43:48.626Z,24.15
2023-06-17T07:44:48.690Z,24.31
2023-06-17T07:45:48.559Z,24.50
2023-06-17T07:46:48.691Z,24.86
2023-06-17T07:47:48.613Z,24.99
2023-06-17T07:48:48.618Z,25.23
2023-06-17T07:49:48.569Z,25.52
2023-06-17T07:50:48.545Z,25.75
2023-06-17T07:51:48.588Z,25.83
2023-06-17T07:52:48.583Z,25.61
2023-06-17T07:53:48.624Z,25.44
2023-06-17T07:54:48.572Z,25.29
2023-06-17T07:55:48.574Z,25.39
2023-06-17T07:56:48.565Z,25.48
2023-06-17T07:57:48.587Z,25.50
2023-06-17T07:58:48.580Z,25.56
2023-06-17T07:59:48.600Z,25.72
2023-06-17T08:00:48.611Z,25.80
2023-06-17T08:01:48.602Z,25.59
2023-06-17T08:02:48.869Z,25.37
2023-06-17T08:03:48.676Z,25.31
2023-06-17T08:04:48.606Z,25.28
2023-06-17T08:05:48.673Z,25.44
2023-06-17T08:06:48.634Z,25.59
2023-06-17T08:07:48.633Z,25.83
2023-06-17T08:08:48.642Z,26.06
2023-06-17T08:09:48.615Z,26.15
2023-06-17T08:10:48.618Z,26.34
2023-06-17T08:11:48.642Z,26.50
2023-06-17T08:12:48.639Z,26.46
2023-06-17T08:13:48.620Z,26.44
2023-06-17T08:14:48.664Z,26.56
2023-06-17T08:15:48.604Z,26.71
2023-06-17T08:16:48.733Z,26.56
2023-06-17T08:17:48.687Z,26.42
2023-06-17T08:18:48.672Z,26.46
2023-06-17T08:19:48.608Z,26.69
2023-06-17T08:20:48.621Z,26.93
2023-06-17T08:21:48.643Z,27.05
2023-06-17T08:22:48.669Z,26.60
2023-06-17T08:23:48.693Z,26.32
2023-06-17T08:24:48.605Z,26.38
2023-06-17T08:25:48.664Z,26.60
2023-06-17T08:26:48.661Z,26.83
2023-06-17T08:27:48.626Z,26.94
2023-06-17T08:28:48.665Z,27.05
2023-06-17T08:29:48.658Z,27.08
2023-06-17T08:30:48.633Z,26.79
2023-06-17T08:31:48.639Z,26.79
2023-06-17T08:32:48.715Z,26.86
2023-06-17T08:33:48.692Z,26.94
2023-06-17T08:34:48.671Z,26.90
2023-06-17T08:35:48.653Z,26.52
2023-06-17T08:36:48.643Z,26.42
2023-06-17T08:37:48.654Z,26.46
2023-06-17T08:38:48.733Z,26.52
2023-06-17T08:39:48.673Z,26.74
2023-06-17T08:40:48.676Z,26.92
2023-06-17T08:41:48.640Z,27.12
2023-06-17T08:42:48.696Z,27.31
2023-06-17T08:43:48.642Z,27.19
2023-06-17T08:44:48.668Z,27.19
2023-06-17T08:45:48.722Z,27.43
2023-06-17T08:46:48.677Z,27.64
2023-06-17T08:47:48.721Z,27.51
2023-06-17T08:48:48.660Z,27.46
2023-06-17T08:49:48.682Z,27.59
2023-06-17T08:50:48.719Z,27.88
2023-06-17T08:51:48.698Z,27.99
2023-06-17T08:52:48.657Z,27.95
2023-06-17T08:53:48.690Z,27.77
2023-06-17T08:54:48.697Z,27.70
2023-06-17T08:55:48.728Z,27.71
2023-06-17T08:56:48.726Z,27.80
2023-06-17T08:57:48.741Z,27.93
2023-06-17T08:58:48.729Z,27.91
2023-06-17T08:59:48.692Z,27.84
2023-06-17T09:01:48.699Z,27.60
2023-06-17T09:02:48.851Z,27.56
2023-06-17T09:03:48.694Z,27.71
2023-06-17T09:04:48.723Z,27.97
2023-06-17T09:05:48.705Z,28.26
2023-06-17T09:06:48.751Z,28.44
2023-06-17T09:07:48.757Z,28.59
2023-06-17T09:08:48.702Z,28.69
2023-06-17T09:09:48.778Z,28.80
2023-06-17T09:10:48.713Z,28.80
2023-06-17T09:11:51.194Z,28.69
2023-06-17T09:12:48.721Z,28.79
2023-06-17T09:13:48.806Z,28.94
2023-06-17T09:14:48.735Z,29.04
2023-06-17T09:15:48.725Z,29.11
2023-06-17T09:16:48.760Z,29.23
2023-06-17T09:17:48.912Z,29.33
2023-06-17T09:18:48.712Z,29.40
2023-06-17T09:19:48.766Z,29.24
2023-06-17T09:20:48.773Z,28.39
2023-06-17T09:21:48.769Z,27.60
2023-06-17T09:22:48.801Z,27.43
2023-06-17T09:23:48.862Z,27.65
2023-06-17T09:24:48.745Z,28.00
2023-06-17T09:25:48.761Z,28.24
2023-06-17T09:26:48.762Z,28.50
2023-06-17T09:28:03.069Z,28.88
2023-06-17T09:28:48.770Z,29.15
2023-06-17T09:29:48.730Z,29.38
2023-06-17T09:30:48.739Z,29.57
2023-06-17T09:31:48.786Z,29.86
2023-06-17T09:32:48.794Z,30.19
2023-06-17T09:33:48.772Z,30.54
2023-06-17T09:34:48.759Z,30.66
2023-06-17T09:35:48.825Z,30.46
2023-06-17T09:36:48.795Z,30.67
2023-06-17T09:37:58.515Z,31.00
2023-06-17T09:38:48.813Z,31.33
2023-06-17T09:39:48.782Z,31.44
2023-06-17T09:40:48.769Z,31.45
2023-06-17T09:41:48.778Z,31.34
2023-06-17T09:42:48.793Z,31.27
2023-06-17T09:43:48.802Z,31.35
2023-06-17T09:44:48.815Z,31.43
2023-06-17T09:45:48.801Z,31.46
2023-06-17T09:46:48.841Z,31.55
2023-06-17T09:47:48.944Z,31.50
2023-06-17T09:48:48.929Z,31.46
2023-06-17T09:49:48.813Z,31.37
2023-06-17T09:50:48.730Z,31.43
2023-06-17T09:51:48.769Z,31.48
2023-06-17T09:52:48.757Z,31.46
2023-06-17T09:53:48.790Z,31.43
2023-06-17T09:54:48.811Z,31.34
2023-06-17T09:55:48.765Z,31.26
2023-06-17T09:56:48.781Z,31.32
2023-06-17T09:57:49.165Z,31.45
2023-06-17T09:58:48.828Z,31.53
2023-06-17T09:59:48.866Z,31.44
2023-06-17T10:00:48.820Z,31.29
2023-06-17T10:01:48.845Z,31.28
2023-06-17T10:02:48.796Z,31.32
2023-06-17T10:03:48.905Z,31.32
2023-06-17T10:04:49.807Z,31.45
2023-06-17T10:05:48.817Z,31.72
2023-06-17T10:06:48.805Z,31.89
2023-06-17T10:07:48.843Z,31.81
2023-06-17T10:08:48.829Z,31.67
2023-06-17T10:09:48.805Z,31.68
2023-06-17T10:10:48.842Z,31.63
2023-06-17T10:11:48.826Z,31.59
2023-06-17T10:12:48.808Z,31.63
2023-06-17T10:13:48.799Z,31.68
2023-06-17T10:14:48.864Z,31.78
2023-06-17T10:15:48.879Z,32.08
2023-06-17T10:16:48.902Z,32.27
2023-06-17T10:17:48.853Z,32.40
2023-06-17T10:18:48.856Z,32.57
2023-06-17T10:19:48.867Z,32.59
2023-06-17T10:20:48.847Z,32.30
2023-06-17T10:21:48.895Z,31.94
2023-06-17T10:22:48.866Z,31.92
2023-06-17T10:23:48.885Z,31.73
2023-06-17T10:24:48.836Z,31.70
2023-06-17T10:25:48.854Z,31.83
2023-06-17T10:26:51.114Z,32.02
2023-06-17T10:27:48.844Z,32.29
2023-06-17T10:28:48.808Z,32.52
2023-06-17T10:29:48.837Z,32.52
2023-06-17T10:30:48.996Z,32.41
2023-06-17T10:31:48.892Z,32.32
2023-06-17T10:32:51.005Z,32.26
2023-06-17T10:33:48.891Z,32.05
2023-06-17T10:34:48.860Z,32.09
2023-06-17T10:35:48.838Z,32.35
2023-06-17T10:36:48.876Z,32.63
2023-06-17T10:37:48.895Z,32.61
2023-06-17T10:38:50.532Z,32.54
2023-06-17T10:39:48.885Z,32.56
2023-06-17T10:40:48.879Z,32.58
2023-06-17T10:41:48.907Z,32.53
2023-06-17T10:42:48.848Z,32.53
2023-06-17T10:43:48.859Z,32.43
2023-06-17T10:44:50.821Z,32.37
2023-06-17T10:45:48.899Z,32.42
2023-06-17T10:46:48.862Z,32.50
2023-06-17T10:47:48.913Z,32.48
2023-06-17T10:48:48.920Z,32.31
2023-06-17T10:49:48.918Z,32.27
2023-06-17T10:50:51.055Z,32.51
2023-06-17T10:51:58.042Z,32.84
2023-06-17T10:52:48.876Z,33.03
2023-06-17T10:53:48.891Z,33.11
2023-06-17T10:54:48.853Z,33.19
2023-06-17T10:55:48.829Z,33.33
2023-06-17T10:56:48.898Z,33.37
2023-06-17T10:57:48.904Z,33.39
2023-06-17T10:58:48.886Z,33.31
2023-06-17T10:59:48.865Z,33.24
2023-06-17T11:00:48.882Z,33.27
2023-06-17T11:01:49.710Z,33.25
2023-06-17T11:02:49.059Z,33.18
2023-06-17T11:03:48.974Z,33.22
2023-06-17T11:04:48.919Z,33.16
2023-06-17T11:05:48.909Z,33.10
2023-06-17T11:06:48.881Z,33.01
2023-06-17T11:07:48.929Z,33.07
2023-06-17T11:08:48.979Z,33.32
2023-06-17T11:09:48.974Z,33.55
2023-06-17T11:10:48.936Z,33.77
2023-06-17T11:11:48.920Z,33.86
2023-06-17T11:12:51.153Z,33.98
2023-06-17T11:13:48.963Z,34.07
2023-06-17T11:14:48.927Z,34.18
2023-06-17T11:15:48.948Z,33.92
2023-06-17T11:16:49.052Z,33.67
2023-06-17T11:17:48.925Z,33.49
2023-06-17T11:18:51.765Z,33.38
2023-06-17T11:19:48.935Z,33.56
2023-06-17T11:20:48.948Z,33.80
2023-06-17T11:21:48.922Z,33.96
2023-06-17T11:22:49.584Z,33.86
2023-06-17T11:23:49.177Z,33.73
2023-06-17T11:24:48.920Z,33.69
2023-06-17T11:25:49.052Z,33.56
2023-06-17T11:26:49.236Z,33.47
2023-06-17T11:27:49.343Z,33.33
2023-06-17T11:28:49.385Z,33.04
2023-06-17T11:29:49.283Z,32.93
2023-06-17T11:30:49.099Z,33.04
2023-06-17T11:31:49.880Z,33.08
2023-06-17T11:32:49.040Z,33.10
2023-06-17T11:33:48.982Z,33.23
2023-06-17T11:34:48.933Z,33.42
2023-06-17T11:35:48.969Z,33.33
2023-06-17T11:36:48.950Z,33.07
2023-06-17T11:37:48.963Z,32.98
2023-06-17T11:38:49.039Z,33.08
2023-06-17T11:39:49.016Z,33.12
2023-06-17T11:40:48.975Z,33.18
2023-06-17T11:41:48.970Z,33.20
2023-06-17T11:42:48.988Z,33.33
2023-06-17T11:43:48.976Z,33.54
2023-06-17T11:44:48.988Z,33.56
2023-06-17T11:45:48.955Z,33.60
2023-06-17T11:46:49.114Z,33.66
2023-06-17T11:47:48.948Z,33.48
2023-06-17T11:48:48.967Z,33.20
2023-06-17T11:49:49.025Z,33.17
2023-06-17T11:50:49.139Z,33.23
2023-06-17T11:51:48.952Z,33.42
2023-06-17T11:52:48.957Z,33.61
2023-06-17T11:53:48.978Z,33.80
2023-06-17T11:54:49.014Z,33.90
2023-06-17T11:55:48.997Z,33.89
2023-06-17T11:56:48.980Z,33.93
2023-06-17T11:57:48.970Z,33.90
2023-06-17T11:58:48.981Z,33.89
2023-06-17T11:59:48.980Z,33.95
2023-06-17T12:00:49.051Z,34.13
2023-06-17T12:01:49.121Z,34.15
2023-06-17T12:02:49.053Z,34.08
2023-06-17T12:03:49.111Z,34.17
2023-06-17T12:04:49.028Z,34.20
2023-06-17T12:05:48.993Z,34.17
2023-06-17T12:06:49.000Z,34.23
2023-06-17T12:07:49.022Z,34.00
2023-06-17T12:08:48.980Z,33.89
2023-06-17T12:09:48.981Z,33.80
2023-06-17T12:10:49.072Z,33.79
2023-06-17T12:11:48.997Z,33.78
2023-06-17T12:12:48.964Z,33.65
2023-06-17T12:13:49.019Z,33.63
2023-06-17T12:14:49.069Z,33.71
2023-06-17T12:15:49.069Z,33.74
2023-06-17T12:16:49.021Z,33.75
2023-06-17T12:17:49.141Z,33.73
2023-06-17T12:18:49.026Z,33.77
2023-06-17T12:19:49.006Z,33.76
2023-06-17T12:20:49.030Z,33.80
2023-06-17T12:21:49.040Z,33.94
2023-06-17T12:22:49.050Z,34.17
2023-06-17T12:23:49.123Z,34.38
2023-06-17T12:24:49.029Z,34.47
2023-06-17T12:25:49.058Z,34.53
2023-06-17T12:26:49.077Z,34.21
2023-06-17T12:27:49.015Z,34.07
2023-06-17T12:28:49.023Z,34.09
2023-06-17T12:29:49.027Z,34.23
2023-06-17T12:30:49.027Z,34.37
2023-06-17T12:31:49.060Z,34.44
2023-06-17T12:32:49.119Z,34.56
2023-06-17T12:33:49.030Z,34.31
2023-06-17T12:34:49.061Z,34.11
2023-06-17T12:35:49.024Z,34.01
2023-06-17T12:36:49.060Z,34.00
2023-06-17T12:37:49.050Z,33.71
2023-06-17T12:38:49.051Z,33.62
2023-06-17T12:39:49.036Z,33.73
2023-06-17T12:40:49.057Z,33.75
2023-06-17T12:41:49.089Z,33.87
2023-06-17T12:42:49.110Z,33.85
2023-06-17T12:43:49.170Z,33.75
2023-06-17T12:44:49.066Z,33.42
2023-06-17T12:45:49.084Z,33.13
2023-06-17T12:46:49.121Z,32.91
2023-06-17T12:47:49.075Z,32.79
2023-06-17T12:48:49.103Z,32.99
2023-06-17T12:49:49.081Z,33.01
2023-06-17T12:50:49.067Z,32.74
2023-06-17T12:51:49.072Z,32.42
2023-06-17T12:52:49.075Z,32.46
2023-06-17T12:53:49.133Z,32.54
2023-06-17T12:54:49.058Z,32.49
2023-06-17T12:55:49.069Z,32.57
2023-06-17T12:56:49.071Z,32.68
2023-06-17T12:57:49.061Z,32.90
2023-06-17T12:58:49.116Z,33.09
2023-06-17T12:59:49.066Z,33.27
2023-06-17T13:00:49.112Z,33.47
2023-06-17T13:01:49.101Z,33.66
2023-06-17T13:02:49.155Z,33.94
2023-06-17T13:03:49.274Z,34.26
2023-06-17T13:04:49.146Z,34.58
2023-06-17T13:05:49.090Z,34.94
2023-06-17T13:06:49.094Z,35.12
2023-06-17T13:07:49.096Z,35.01
2023-06-17T13:08:49.101Z,34.94
2023-06-17T13:09:49.084Z,34.99
2023-06-17T13:10:49.089Z,35.03
2023-06-17T13:11:49.067Z,35.17
2023-06-17T13:12:49.127Z,35.30
2023-06-17T13:13:49.153Z,35.35
2023-06-17T13:14:49.097Z,35.27
2023-06-17T13:15:49.082Z,35.38
2023-06-17T13:16:49.111Z,35.57